createdAt,value
2018-09-14T00:01:01.533Z,99824.70
2018-09-14T00:03:31.926Z,99822.52
2018-09-14T00:06:03.072Z,99830.02
2018-09-14T00:08:33.666Z,99829.66
2018-09-14T00:11:04.551Z,99830.17
2018-09-14T00:13:34.490Z,99826.15
2018-09-14T00:16:04.709Z,99831.59
2018-09-14T00:18:35.805Z,99828.20
2018-09-14T00:21:06.909Z,99834.72
2018-09-14T00:23:37.208Z,99826.92
2018-09-14T00:26:07.566Z,99831.11
2018-09-14T00:28:38.727Z,99831.86
2018-09-14T00:31:09.628Z,99827.08
2018-09-14T00:33:40.750Z,99834.50
2018-09-14T00:36:10.850Z,99833.18
2018-09-14T00:38:41.778Z,99828.41
2018-09-14T00:41:11.656Z,99832.68
2018-09-14T00:43:41.833Z,99832.73
2018-09-14T00:46:11.808Z,99831.25
2018-09-14T00:48:42.132Z,99831.53
2018-09-14T00:51:12.576Z,99826.30
2018-09-14T00:53:42.236Z,99828.81
2018-09-14T00:56:12.552Z,99820.95
2018-09-14T00:58:42.719Z,99820.08
2018-09-14T01:01:13.008Z,99829.63
2018-09-14T01:03:43.411Z,99830.02
2018-09-14T01:06:13.931Z,99824.94
2018-09-14T01:08:44.138Z,99819.52
2018-09-14T01:11:14.179Z,99827.38
2018-09-14T01:13:44.505Z,99821.36
2018-09-14T01:16:15.005Z,99821.48
2018-09-14T01:18:45.047Z,99814.87
2018-09-14T01:21:15.046Z,99818.27
2018-09-14T01:23:44.891Z,99817.82
2018-09-14T01:26:15.148Z,99810.58
2018-09-14T01:28:45.025Z,99813.95
2018-09-14T01:31:16.176Z,99814.73
2018-09-14T01:33:46.327Z,99808.33
2018-09-14T01:36:16.654Z,99815.16
2018-09-14T01:38:46.955Z,99813.17
2018-09-14T01:41:17.934Z,99813.16
2018-09-14T01:43:47.919Z,99813.33
2018-09-14T01:46:18.140Z,99811.47
2018-09-14T01:48:48.225Z,99805.39
2018-09-14T01:51:19.408Z,99809.79
2018-09-14T01:53:49.823Z,99807.62
2018-09-14T01:56:20.881Z,99806.99
2018-09-14T01:58:51.246Z,99807.70
2018-09-14T02:01:22.218Z,99805.30
2018-09-14T02:03:52.860Z,99799.33
2018-09-14T02:06:23.567Z,99796.14
2018-09-14T02:08:53.368Z,99798.02
2018-09-14T02:11:22.983Z,99798.27
2018-09-14T02:13:53.075Z,99798.02
2018-09-14T02:16:23.594Z,99802.87
2018-09-14T02:18:53.142Z,99796.42
2018-09-14T02:21:22.743Z,99795.31
2018-09-14T02:23:53.109Z,99795.88
2018-09-14T02:26:23.050Z,99789.56
2018-09-14T02:28:52.650Z,99794.80
2018-09-14T02:31:23.026Z,99793.47
2018-09-14T02:33:53.495Z,99793.54
2018-09-14T02:36:23.529Z,99788.31
2018-09-14T02:38:53.557Z,99790.42
2018-09-14T02:41:23.759Z,99787.77
2018-09-14T02:43:55.170Z,99787.96
2018-09-14T02:46:25.404Z,99788.46
2018-09-14T02:48:56.092Z,99789.27
2018-09-14T02:51:27.154Z,99791.34
2018-09-14T02:53:58.278Z,99794.98
2018-09-14T02:56:28.316Z,99793.75
2018-09-14T02:58:59.266Z,99791.55
2018-09-14T03:01:29.107Z,99790.95
2018-09-14T03:03:59.977Z,99793.66
2018-09-14T03:06:30.429Z,99793.48
2018-09-14T03:09:00.245Z,99789.70
2018-09-14T03:11:30.555Z,99797.27
2018-09-14T03:16:29.736Z,99792.16
2018-09-14T03:19:01.036Z,99799.14
2018-09-14T03:21:33.132Z,99794.11
2018-09-14T03:24:05.156Z,99795.97
2018-09-14T03:26:35.177Z,99796.75
2018-09-14T03:29:06.678Z,99788.19
2018-09-14T03:31:36.693Z,99784.77
2018-09-14T03:34:06.571Z,99785.97
2018-09-14T03:36:38.016Z,99787.16
2018-09-14T03:39:09.917Z,99788.19
2018-09-14T03:41:40.109Z,99790.95
2018-09-14T03:44:10.425Z,99784.79
2018-09-14T03:46:40.976Z,99787.05
2018-09-14T03:49:10.906Z,99793.82
2018-09-14T03:51:40.632Z,99790.02
2018-09-14T03:54:10.393Z,99791.91
2018-09-14T03:56:41.177Z,99791.17
2018-09-14T03:59:11.180Z,99794.06
2018-09-14T04:01:41.909Z,99789.56
2018-09-14T04:04:11.855Z,99791.19
2018-09-14T04:06:41.400Z,99793.13
2018-09-14T04:09:12.525Z,99793.13
2018-09-14T04:11:42.128Z,99798.08
2018-09-14T04:14:13.346Z,99798.08
2018-09-14T04:16:43.784Z,99795.38
2018-09-14T04:19:13.794Z,99796.12
2018-09-14T04:21:43.794Z,99792.43
2018-09-14T04:24:13.834Z,99792.56
2018-09-14T04:26:43.466Z,99797.44
2018-09-14T04:29:13.183Z,99798.55
2018-09-14T04:31:43.449Z,99801.72
2018-09-14T04:34:13.336Z,99804.64
2018-09-14T04:36:43.370Z,99807.52
2018-09-14T04:39:13.775Z,99808.31
2018-09-14T04:41:45.216Z,99808.75
2018-09-14T04:44:17.980Z,99804.27
2018-09-14T04:46:51.492Z,99810.36
2018-09-14T04:49:22.326Z,99814.05
2018-09-14T04:51:53.528Z,99816.49
2018-09-14T04:54:25.490Z,99818.64
2018-09-14T04:56:56.319Z,99810.97
2018-09-14T04:59:27.248Z,99806.55
2018-09-14T05:01:59.010Z,99812.42
2018-09-14T05:04:30.283Z,99812.89
2018-09-14T05:07:02.648Z,99818.31
2018-09-14T05:09:33.815Z,99822.23
2018-09-14T05:12:04.806Z,99820.38
2018-09-14T05:14:34.490Z,99817.23
2018-09-14T05:17:05.848Z,99816.31
2018-09-14T05:19:35.725Z,99814.30
2018-09-14T05:22:06.120Z,99817.31
2018-09-14T05:24:36.069Z,99821.05
2018-09-14T05:27:06.630Z,99817.54
2018-09-14T05:29:36.468Z,99821.77
2018-09-14T05:32:05.931Z,99825.17
2018-09-14T05:34:35.831Z,99824.66
2018-09-14T05:37:05.767Z,99828.23
2018-09-14T05:39:35.563Z,99826.86
2018-09-14T05:42:06.067Z,99830.77
2018-09-14T05:44:36.189Z,99825.82
2018-09-14T05:47:06.420Z,99825.33
2018-09-14T05:49:36.249Z,99834.64
2018-09-14T05:52:06.931Z,99836.79
2018-09-14T05:54:37.886Z,99833.55
2018-09-14T05:57:08.460Z,99841.85
2018-09-14T05:59:38.248Z,99838.77
2018-09-14T06:02:08.108Z,99841.55
2018-09-14T06:04:38.057Z,99845.88
2018-09-14T06:07:08.020Z,99848.19
2018-09-14T06:09:38.172Z,99852.94
2018-09-14T06:12:10.077Z,99854.63
2018-09-14T06:14:40.094Z,99859.66
2018-09-14T06:17:15.868Z,99855.89
2018-09-14T06:19:46.629Z,99861.55
2018-09-14T06:22:16.054Z,99865.59
2018-09-14T06:24:45.853Z,99833.23
2018-09-14T06:27:15.982Z,99822.08
2018-09-14T06:29:46.051Z,99857.23
2018-09-14T06:32:16.233Z,99857.84
2018-09-14T06:34:47.146Z,99853.89
2018-09-14T06:37:19.977Z,99859.52
2018-09-14T06:39:50.181Z,99858.97
2018-09-14T06:42:20.990Z,99863.05
2018-09-14T06:44:51.420Z,99867.16
2018-09-14T06:47:21.734Z,99869.05
2018-09-14T06:49:53.692Z,99865.14
2018-09-14T06:52:23.862Z,99865.83
2018-09-14T06:54:53.604Z,99867.50
2018-09-14T06:57:24.115Z,99842.55
2018-09-14T06:59:58.682Z,99869.59
2018-09-14T07:02:29.856Z,99867.56
2018-09-14T07:04:59.979Z,99874.94
2018-09-14T07:07:30.087Z,99871.81
2018-09-14T07:09:59.514Z,99881.91
2018-09-14T07:12:29.113Z,99884.59
2018-09-14T07:15:00.217Z,99878.20
2018-09-14T07:17:29.862Z,99843.72
2018-09-14T07:20:01.230Z,99887.20
2018-09-14T07:22:34.667Z,99888.16
2018-09-14T07:25:06.717Z,99889.25
2018-09-14T07:27:36.595Z,99900.19
2018-09-14T07:30:07.236Z,99900.77
2018-09-14T07:32:37.628Z,99903.17
2018-09-14T07:35:08.141Z,99905.64
2018-09-14T07:37:41.613Z,99882.42
2018-09-14T07:40:20.363Z,99903.28
2018-09-14T07:42:52.761Z,99904.13
2018-09-14T07:45:24.573Z,99902.84
2018-09-14T07:47:57.234Z,99902.09
2018-09-14T07:50:42.452Z,99904.74
2018-09-14T07:53:12.263Z,99903.98
2018-09-14T07:55:42.984Z,99908.09
2018-09-14T07:58:12.800Z,99905.77
2018-09-14T08:00:43.979Z,99907.41
2018-09-14T08:03:16.227Z,99913.61
2018-09-14T08:05:46.312Z,99910.48
2018-09-14T08:08:15.904Z,99909.67
2018-09-14T08:10:47.692Z,99919.45
2018-09-14T08:13:20.098Z,99918.84
2018-09-14T08:15:50.768Z,99920.42
2018-09-14T08:18:22.238Z,99921.47
2018-09-14T08:20:53.544Z,99932.25
2018-09-14T08:23:23.881Z,99915.79
2018-09-14T08:25:53.780Z,99920.77
2018-09-14T08:28:30.977Z,99923.39
2018-09-14T08:31:01.094Z,99927.94
2018-09-14T08:33:30.690Z,99917.92
2018-09-14T08:36:02.386Z,99925.27
2018-09-14T08:38:34.926Z,99917.89
2018-09-14T08:41:04.749Z,99924.88
2018-09-14T08:43:35.555Z,99922.20
2018-09-14T08:46:05.401Z,99920.09
2018-09-14T08:48:35.107Z,99923.00
2018-09-14T08:51:07.793Z,99922.19
2018-09-14T08:53:38.744Z,99922.96
2018-09-14T08:56:08.711Z,99924.85
2018-09-14T08:58:41.490Z,99875.96
2018-09-14T09:01:18.954Z,99927.92
2018-09-14T09:03:48.911Z,99925.06
2018-09-14T09:09:08.149Z,99924.14
2018-09-14T09:11:42.103Z,99899.34
2018-09-14T09:14:12.586Z,99928.52
2018-09-14T09:16:45.895Z,99925.02
2018-09-14T09:19:21.569Z,99927.41
2018-09-14T09:21:53.625Z,99923.70
2018-09-14T09:24:26.821Z,99919.75
2018-09-14T09:26:57.405Z,99918.03
2018-09-14T09:29:33.590Z,99917.56
2018-09-14T09:32:06.239Z,99916.84
2018-09-14T09:34:37.212Z,99916.09
2018-09-14T09:37:09.038Z,99910.91
2018-09-14T09:39:39.674Z,99909.09
2018-09-14T09:42:11.426Z,99909.45
2018-09-14T09:44:42.882Z,99903.92
2018-09-14T09:47:14.147Z,99897.29
2018-09-14T09:49:46.280Z,99905.83
2018-09-14T09:52:17.775Z,99903.75
2018-09-14T09:54:48.807Z,99899.47
2018-09-14T09:57:21.493Z,99896.80
2018-09-14T09:59:57.525Z,99899.44
2018-09-14T10:02:29.520Z,99895.47
2018-09-14T10:05:06.034Z,99898.12
2018-09-14T10:07:36.899Z,99872.00
2018-09-14T10:10:07.763Z,99899.20
2018-09-14T10:12:37.709Z,99898.69
2018-09-14T10:15:14.661Z,99898.42
2018-09-14T10:17:47.339Z,99909.66
2018-09-14T10:20:24.886Z,99873.44
2018-09-14T10:23:00.822Z,99906.16
2018-09-14T10:25:41.451Z,99903.48
2018-09-14T10:28:12.253Z,99867.70
2018-09-14T10:30:43.780Z,99885.84
2018-09-14T10:33:15.631Z,99889.23
2018-09-14T10:35:52.229Z,99883.85
2018-09-14T10:38:27.939Z,99881.09
2018-09-14T10:41:03.510Z,99850.39
2018-09-14T10:43:42.419Z,99868.77
2018-09-14T10:46:20.964Z,99838.94
2018-09-14T10:48:58.690Z,99868.23
2018-09-14T10:51:36.280Z,99863.20
2018-09-14T10:54:09.425Z,99868.43
2018-09-14T10:56:51.801Z,99867.18
2018-09-14T10:59:24.707Z,99871.98
2018-09-14T11:01:58.475Z,99863.98
2018-09-14T11:04:35.174Z,99863.84
2018-09-14T11:07:10.212Z,99862.77
2018-09-14T11:09:41.295Z,99859.28
2018-09-14T11:12:21.277Z,99865.58
2018-09-14T11:14:51.897Z,99863.39
2018-09-14T11:17:23.491Z,99869.41
2018-09-14T11:20:06.198Z,99868.73
2018-09-14T11:22:45.953Z,99842.56
2018-09-14T11:28:01.949Z,99865.94
2018-09-14T11:30:34.923Z,99870.20
2018-09-14T11:33:08.918Z,99861.69
2018-09-14T11:35:44.198Z,99860.88
2018-09-14T11:38:20.532Z,99864.84
2018-09-14T11:40:58.281Z,99862.78
2018-09-14T11:43:32.429Z,99862.76
2018-09-14T11:46:04.473Z,99861.98
2018-09-14T11:48:48.171Z,99835.06
2018-09-14T11:51:24.754Z,99852.88
2018-09-14T11:54:03.208Z,99856.00
2018-09-14T11:56:44.495Z,99856.53
2018-09-14T11:59:28.176Z,99857.05
2018-09-14T12:02:07.156Z,99855.20
2018-09-14T12:04:45.615Z,99862.31
2018-09-14T12:07:20.825Z,99828.66
2018-09-14T12:09:52.368Z,99848.82
2018-09-14T12:12:34.514Z,99823.20
2018-09-14T12:15:09.972Z,99854.16
2018-09-14T12:17:45.219Z,99848.44
2018-09-14T12:20:22.944Z,99843.31
2018-09-14T12:23:58.661Z,99840.99
2018-09-14T12:26:28.562Z,99834.53
2018-09-14T12:29:00.276Z,99843.13
2018-09-14T12:31:34.601Z,99836.00
2018-09-14T12:34:08.626Z,99832.27
2018-09-14T12:36:44.092Z,99835.20
2018-09-14T12:39:20.717Z,99831.20
2018-09-14T12:41:57.611Z,99833.09
2018-09-14T12:44:34.415Z,99830.16
2018-09-14T12:50:09.875Z,99800.55
2018-09-14T12:52:40.028Z,99823.80
2018-09-14T12:55:11.048Z,99825.78
2018-09-14T12:57:43.749Z,99827.47
2018-09-14T13:00:15.903Z,99818.60
2018-09-14T13:02:50.400Z,99797.23
2018-09-14T13:05:21.977Z,99817.33
2018-09-14T13:07:52.117Z,99815.73
2018-09-14T13:10:25.660Z,99808.44
2018-09-14T13:12:57.297Z,99801.75
2018-09-14T13:15:30.198Z,99794.25
2018-09-14T13:18:02.935Z,99783.10
2018-09-14T13:20:35.412Z,99782.09
2018-09-14T13:23:07.554Z,99784.09
2018-09-14T13:25:39.316Z,99784.27
2018-09-14T13:28:10.763Z,99777.56
2018-09-14T13:30:41.299Z,99775.75
2018-09-14T13:33:14.142Z,99770.83
2018-09-14T13:35:47.904Z,99774.08
2018-09-14T13:38:18.929Z,99778.95
2018-09-14T13:40:53.143Z,99770.75
2018-09-14T13:43:25.673Z,99772.37
2018-09-14T13:45:57.603Z,99770.03
2018-09-14T13:48:30.287Z,99769.50
2018-09-14T13:51:11.167Z,99757.77
2018-09-14T13:53:42.339Z,99770.33
2018-09-14T13:56:16.416Z,99761.30
2018-09-14T13:58:57.857Z,99762.98
2018-09-14T14:01:30.307Z,99755.92
2018-09-14T14:04:06.357Z,99755.58
2018-09-14T14:06:39.245Z,99757.23
2018-09-14T14:09:16.931Z,99755.77
2018-09-14T14:11:51.132Z,99747.18
2018-09-14T14:14:28.584Z,99752.25
2018-09-14T14:17:03.355Z,99747.06
2018-09-14T14:19:38.464Z,99746.35
2018-09-14T14:22:20.976Z,99736.92
2018-09-14T14:24:55.444Z,99735.51
2018-09-14T14:27:29.625Z,99736.19
2018-09-14T14:30:05.275Z,99738.82
2018-09-14T14:32:40.427Z,99738.14
2018-09-14T14:35:15.320Z,99746.27
2018-09-14T14:37:49.311Z,99744.58
2018-09-14T14:40:28.270Z,99745.33
2018-09-14T14:43:02.682Z,99736.00
2018-09-14T14:45:36.134Z,99732.81
2018-09-14T14:48:08.682Z,99731.35
2018-09-14T14:50:43.350Z,99735.52
2018-09-14T14:53:14.244Z,99726.58
2018-09-14T14:55:43.765Z,99728.45
2018-09-14T14:58:15.052Z,99727.24
2018-09-14T15:00:45.945Z,99720.59
2018-09-14T15:03:17.258Z,99717.34
2018-09-14T15:05:47.501Z,99713.75
2018-09-14T15:08:22.714Z,99707.14
2018-09-14T15:10:54.319Z,99707.00
2018-09-14T15:13:25.287Z,99706.23
2018-09-14T15:15:56.146Z,99700.95
2018-09-14T15:18:27.007Z,99704.28
2018-09-14T15:20:58.927Z,99705.84
2018-09-14T15:23:28.677Z,99704.15
2018-09-14T15:25:58.938Z,99703.39
2018-09-14T15:28:29.161Z,99703.73
2018-09-14T15:31:01.021Z,99706.59
2018-09-14T15:33:31.776Z,99707.71
2018-09-14T15:36:05.673Z,99697.70
2018-09-14T15:38:36.618Z,99694.27
2018-09-14T15:41:06.815Z,99693.63
2018-09-14T15:43:38.165Z,99693.63
2018-09-14T15:46:11.064Z,99688.27
2018-09-14T15:48:42.303Z,99694.13
2018-09-14T15:51:12.675Z,99688.74
2018-09-14T15:53:44.175Z,99690.49
2018-09-14T15:56:14.976Z,99683.89
2018-09-14T15:58:48.181Z,99685.33
2018-09-14T16:01:18.969Z,99684.49
2018-09-14T16:03:50.464Z,99670.44
2018-09-14T16:06:21.500Z,99686.50
2018-09-14T16:08:56.851Z,99680.95
2018-09-14T16:11:31.008Z,99673.66
2018-09-14T16:14:07.913Z,99673.09
2018-09-14T16:16:41.689Z,99675.86
2018-09-14T16:19:14.870Z,99666.55
2018-09-14T16:21:48.306Z,99667.98
2018-09-14T16:24:20.423Z,99671.39
2018-09-14T16:26:52.621Z,99672.75
2018-09-14T16:29:25.488Z,99671.98
2018-09-14T16:32:00.243Z,99674.17
2018-09-14T16:34:35.264Z,99675.30
2018-09-14T16:37:07.521Z,99673.95
2018-09-14T16:39:39.389Z,99675.84
2018-09-14T16:42:11.868Z,99677.53
2018-09-14T16:44:43.291Z,99673.58
2018-09-14T16:47:14.227Z,99669.32
2018-09-14T16:49:45.435Z,99678.47
2018-09-14T16:52:18.139Z,99683.97
2018-09-14T16:54:50.417Z,99684.27
2018-09-14T16:57:22.173Z,99685.11
2018-09-14T16:59:55.145Z,99687.27
2018-09-14T17:07:14.032Z,99686.05
2018-09-14T17:09:45.619Z,99685.83
2018-09-14T17:12:17.661Z,99690.34
2018-09-14T17:14:50.144Z,99660.56
2018-09-14T17:17:20.878Z,99687.14
2018-09-14T17:19:51.342Z,99687.41
2018-09-14T17:22:21.639Z,99688.20
2018-09-14T17:24:51.551Z,99683.70
2018-09-14T17:27:21.548Z,99689.31
2018-09-14T17:29:52.730Z,99688.00
2018-09-14T17:32:23.384Z,99685.38
2018-09-14T17:34:54.458Z,99688.56
2018-09-14T17:37:25.954Z,99685.91
2018-09-14T17:39:55.939Z,99690.98
2018-09-14T17:42:32.415Z,99692.05
2018-09-14T17:45:02.763Z,99695.53
2018-09-14T17:47:34.275Z,99695.54
2018-09-14T17:50:04.301Z,99694.21
2018-09-14T17:52:36.147Z,99690.22
2018-09-14T17:55:06.157Z,99697.94
2018-09-14T17:57:36.451Z,99698.48
2018-09-14T18:00:07.207Z,99703.78
2018-09-14T18:02:39.071Z,99697.41
2018-09-14T18:05:10.146Z,99693.95
2018-09-14T18:07:40.493Z,99700.61
2018-09-14T18:10:10.238Z,99702.19
2018-09-14T18:12:40.575Z,99701.92
2018-09-14T18:15:10.714Z,99705.38
2018-09-14T18:17:40.841Z,99707.23
2018-09-14T18:20:11.268Z,99709.88
2018-09-14T18:22:40.894Z,99684.03
2018-09-14T18:25:11.110Z,99714.09
2018-09-14T18:27:41.148Z,99720.76
2018-09-14T18:30:11.575Z,99718.89
2018-09-14T18:32:42.259Z,99725.28
2018-09-14T18:35:13.022Z,99723.41
2018-09-14T18:37:42.701Z,99728.79
2018-09-14T18:40:12.915Z,99732.25
2018-09-14T18:42:42.916Z,99729.05
2018-09-14T18:45:12.462Z,99735.98
2018-09-14T18:47:42.759Z,99731.71
2018-09-14T18:50:12.496Z,99737.32
2018-09-14T18:52:42.223Z,99736.76
2018-09-14T18:55:12.313Z,99696.80
2018-09-14T18:57:42.141Z,99728.50
2018-09-14T19:00:12.229Z,99733.04
2018-09-14T19:02:42.077Z,99733.56
2018-09-14T19:05:12.516Z,99731.70
2018-09-14T19:07:42.186Z,99733.84
2018-09-14T19:10:11.967Z,99727.72
2018-09-14T19:12:41.845Z,99735.15
2018-09-14T19:15:11.803Z,99730.89
2018-09-14T19:17:41.770Z,99729.01
2018-09-14T19:20:11.441Z,99736.19
2018-09-14T19:22:47.740Z,99735.38
2018-09-14T19:25:17.620Z,99734.52
2018-09-14T19:27:48.089Z,99732.14
2018-09-14T19:30:17.567Z,99727.34
2018-09-14T19:32:48.045Z,99736.61
2018-09-14T19:35:18.129Z,99733.39
2018-09-14T19:37:47.855Z,99737.88
2018-09-14T19:40:17.883Z,99740.52
2018-09-14T19:42:48.422Z,99740.27
2018-09-14T19:45:19.501Z,99752.41
2018-09-14T19:47:50.631Z,99748.95
2018-09-14T19:50:20.273Z,99750.79
2018-09-14T19:52:50.102Z,99744.41
2018-09-14T19:55:20.135Z,99749.97
2018-09-14T19:57:49.585Z,99744.60
2018-09-14T20:00:19.486Z,99746.45
2018-09-14T20:02:49.380Z,99739.77
2018-09-14T20:05:18.991Z,99736.03
2018-09-14T20:07:48.455Z,99739.42
2018-09-14T20:10:19.426Z,99738.08
2018-09-14T20:12:49.163Z,99740.20
2018-09-14T20:15:18.806Z,99739.38
2018-09-14T20:17:48.843Z,99735.02
2018-09-14T20:20:19.700Z,99740.82
2018-09-14T20:22:49.442Z,99744.73
2018-09-14T20:25:20.486Z,99746.75
2018-09-14T20:27:50.125Z,99743.47
2018-09-14T20:30:20.737Z,99749.01
2018-09-14T20:32:50.641Z,99754.03
2018-09-14T20:35:23.865Z,99756.87
2018-09-14T20:37:54.935Z,99756.03
2018-09-14T20:40:24.855Z,99755.88
2018-09-14T20:42:57.046Z,99755.16
2018-09-14T20:45:30.251Z,99750.23
2018-09-14T20:48:00.698Z,99747.06
2018-09-14T20:50:31.107Z,99743.80
2018-09-14T20:53:02.322Z,99752.27
2018-09-14T20:55:33.608Z,99755.44
2018-09-14T20:58:05.414Z,99748.95
2018-09-14T21:00:36.603Z,99738.45
2018-09-14T21:03:06.710Z,99756.80
2018-09-14T21:05:36.527Z,99755.23
2018-09-14T21:08:08.102Z,99749.37
2018-09-14T21:10:38.717Z,99753.72
2018-09-14T21:13:11.424Z,99752.86
2018-09-14T21:15:43.086Z,99750.77
2018-09-14T21:18:12.831Z,99751.62
2018-09-14T21:20:42.824Z,99759.06
2018-09-14T21:23:13.703Z,99765.92
2018-09-14T21:25:43.334Z,99767.94
2018-09-14T21:28:13.792Z,99762.17
2018-09-14T21:30:43.630Z,99766.71
2018-09-14T21:33:13.151Z,99773.52
2018-09-14T21:35:43.113Z,99773.16
2018-09-14T21:38:13.009Z,99774.20
2018-09-14T21:40:42.936Z,99773.63
2018-09-14T21:43:12.490Z,99781.06
2018-09-14T21:45:42.679Z,99780.30
2018-09-14T21:48:12.479Z,99786.59
2018-09-14T21:50:42.241Z,99780.52
2018-09-14T21:53:12.077Z,99781.52
2018-09-14T21:55:41.652Z,99780.18
2018-09-14T21:58:11.155Z,99782.19
2018-09-14T22:00:46.659Z,99781.63
2018-09-14T22:03:16.642Z,99763.09
2018-09-14T22:05:46.912Z,99788.09
2018-09-14T22:08:17.670Z,99788.99
2018-09-14T22:10:47.214Z,99787.31
2018-09-14T22:13:16.702Z,99794.42
2018-09-14T22:15:47.219Z,99793.13
2018-09-14T22:18:16.788Z,99786.80
2018-09-14T22:20:46.340Z,99790.55
2018-09-14T22:23:16.338Z,99785.23
2018-09-14T22:25:46.304Z,99780.63
2018-09-14T22:28:15.923Z,99782.16
2018-09-14T22:30:45.825Z,99792.98
2018-09-14T22:33:15.360Z,99804.08
2018-09-14T22:35:46.128Z,99800.27
2018-09-14T22:38:16.186Z,99794.33
2018-09-14T22:40:47.168Z,99797.92
2018-09-14T22:43:17.349Z,99796.73
2018-09-14T22:45:48.203Z,99800.91
2018-09-14T22:48:18.370Z,99802.22
2018-09-14T22:50:47.848Z,99795.64
2018-09-14T22:53:17.670Z,99794.55
2018-09-14T22:55:47.146Z,99786.09
2018-09-14T22:58:17.290Z,99793.28
2018-09-14T23:00:52.997Z,99802.69
2018-09-14T23:03:23.753Z,99802.72
2018-09-14T23:05:54.700Z,99809.59
2018-09-14T23:08:26.035Z,99814.84
2018-09-14T23:10:57.141Z,99812.95
2018-09-14T23:13:28.470Z,99808.95
2018-09-14T23:16:02.628Z,99810.03
2018-09-14T23:18:33.021Z,99811.91
2018-09-14T23:21:03.087Z,99807.75
2018-09-14T23:23:33.551Z,99812.86
2018-09-14T23:26:07.963Z,99814.27
2018-09-14T23:28:37.400Z,99809.37
2018-09-14T23:31:07.484Z,99808.85
2018-09-14T23:33:37.850Z,99809.66
2018-09-14T23:36:07.866Z,99807.05
2018-09-14T23:38:37.659Z,99812.72
2018-09-14T23:41:07.458Z,99811.81
2018-09-14T23:43:37.402Z,99821.64
2018-09-14T23:46:08.177Z,99827.45
2018-09-14T23:48:38.091Z,99821.41
2018-09-14T23:51:08.482Z,99817.48
2018-09-14T23:53:39.167Z,99816.51
2018-09-14T23:56:10.163Z,99816.91
2018-09-14T23:58:39.959Z,99818.52
